Time;durP1;ratioP1;P1;durP2;ratioP2;P2;SDS_P1;SDS_P2;PMS_P1;PMS_P2;Temp;Humidity;BMP_temperature;BMP_pressure;BME280_temperature;BME280_humidity;BME280_pressure;Samples;Min_cycle;Max_cycle;Signal;HPM_P1;HPM_P2
2022/08/10 00:01:00;;;;;;;5.55;2.10;;;;;;;;;;5069592;28;20231;-82
2022/08/10 00:03:27;;;;;;;2.10;1.90;;;;;;;;;;5072464;28;20555;-81
2022/08/10 00:05:55;;;;;;;2.67;2.05;;;;;;;;;;5069880;28;20241;-82
2022/08/10 00:08:24;;;;;;;5.40;2.15;;;;;;;;;;5069734;28;20202;-82
2022/08/10 00:10:52;;;;;;;5.50;2.22;;;;;;;;;;5068641;28;20242;-82
2022/08/10 00:13:19;;;;;;;2.40;2.20;;;;;;;;;;5067421;28;20255;-81
2022/08/10 00:15:46;;;;;;;8.10;4.38;;;;;;;;;;5064360;28;20272;-81
2022/08/10 00:18:13;;;;;;;2.80;2.00;;;;;;;;;;5064220;28;20206;-81
2022/08/10 00:20:40;;;;;;;3.00;1.75;;;;;;;;;;5063550;28;20232;-82
2022/08/10 00:23:07;;;;;;;3.50;2.20;;;;;;;;;;5062921;28;20336;-81
2022/08/10 00:25:36;;;;;;;2.53;2.22;;;;;;;;;;5062251;28;20242;-81
2022/08/10 00:28:03;;;;;;;3.45;2.33;;;;;;;;;;5062457;28;20234;-81
2022/08/10 00:30:30;;;;;;;2.63;2.42;;;;;;;;;;5062453;28;20234;-81
2022/08/10 00:32:57;;;;;;;5.82;2.38;;;;;;;;;;5063045;28;20213;-82
2022/08/10 00:35:24;;;;;;;4.10;2.10;;;;;;;;;;5062117;28;20240;-82
2022/08/10 00:37:52;;;;;;;4.03;2.00;;;;;;;;;;5062485;28;20214;-81
2022/08/10 00:40:19;;;;;;;3.25;2.20;;;;;;;;;;5062160;28;20202;-81
2022/08/10 00:42:47;;;;;;;3.55;1.85;;;;;;;;;;5061867;28;20206;-81
2022/08/10 00:45:14;;;;;;;3.47;2.38;;;;;;;;;;5061707;28;20208;-81
2022/08/10 00:47:41;;;;;;;10.43;2.10;;;;;;;;;;5061282;28;20225;-81
2022/08/10 00:50:09;;;;;;;2.22;2.10;;;;;;;;;;5061508;28;20213;-81
2022/08/10 00:52:36;;;;;;;3.25;2.10;;;;;;;;;;5061394;28;20198;-81
2022/08/10 00:55:04;;;;;;;2.50;2.30;;;;;;;;;;5061265;28;20206;-81
2022/08/10 00:57:32;;;;;;;2.67;2.05;;;;;;;;;;5061387;28;20218;-81
2022/08/10 01:00:00;;;;;;;2.80;2.13;;;;;;;;;;5061477;28;20202;-81
2022/08/10 01:02:28;;;;;;;2.30;2.10;;;;;;;;;;5060658;28;20229;-81
2022/08/10 01:04:55;;;;;;;3.83;2.35;;;;;;;;;;5048179;28;20206;-81
2022/08/10 01:07:28;;;;;;;1.98;1.88;;;;;;;;;;5060691;28;20226;-81
2022/08/10 01:10:03;;;;;;;2.72;2.05;;;;;;;;;;5066209;28;20305;-81
2022/08/10 01:12:35;;;;;;;4.95;2.25;;;;;;;;;;5057899;28;20251;-81
2022/08/10 01:15:08;;;;;;;2.60;2.08;;;;;;;;;;5058743;28;20206;-82
2022/08/10 01:17:38;;;;;;;3.35;2.22;;;;;;;;;;5059265;28;20264;-81
2022/08/10 01:20:09;;;;;;;3.63;2.33;;;;;;;;;;5058639;28;20206;-81
2022/08/10 01:22:43;;;;;;;5.03;2.40;;;;;;;;;;5058856;28;20202;-82
2022/08/10 01:25:19;;;;;;;2.67;2.40;;;;;;;;;;5058718;28;20206;-82
2022/08/10 01:27:52;;;;;;;2.53;2.33;;;;;;;;;;5060709;28;20237;-81
2022/08/10 01:30:20;;;;;;;4.38;2.42;;;;;;;;;;5060071;28;20202;-82
2022/08/10 01:32:49;;;;;;;2.55;2.35;;;;;;;;;;5058594;28;20206;-81
2022/08/10 01:35:20;;;;;;;6.55;2.40;;;;;;;;;;5058459;28;20206;-82
2022/08/10 01:37:51;;;;;;;3.00;2.35;;;;;;;;;;5059344;28;20233;-81
2022/08/10 01:40:23;;;;;;;4.07;2.35;;;;;;;;;;5058621;28;20201;-81
2022/08/10 01:42:51;;;;;;;2.88;2.53;;;;;;;;;;5059201;28;20220;-81
2022/08/10 01:45:20;;;;;;;2.30;2.10;;;;;;;;;;5059132;28;20202;-81
2022/08/10 01:50:38;;;;;;;3.38;2.20;;;;;;;;;;5058726;28;20244;-81
2022/08/10 01:53:07;;;;;;;3.55;2.40;;;;;;;;;;5045863;28;20206;-81
2022/08/10 01:55:35;;;;;;;2.75;2.47;;;;;;;;;;5059085;28;20510;-81
2022/08/10 01:58:04;;;;;;;2.90;2.20;;;;;;;;;;5053673;28;20203;-81
2022/08/10 02:00:32;;;;;;;2.35;2.15;;;;;;;;;;5038979;28;20234;-81
2022/08/10 02:03:01;;;;;;;2.90;2.33;;;;;;;;;;5039432;28;20726;-81
2022/08/10 02:05:29;;;;;;;4.75;2.42;;;;;;;;;;5039485;28;20234;-81
2022/08/10 02:07:57;;;;;;;3.40;2.50;;;;;;;;;;5039876;28;20234;-81
2022/08/10 02:10:25;;;;;;;3.03;2.13;;;;;;;;;;5039179;28;20241;-81
2022/08/10 02:12:55;;;;;;;2.90;2.47;;;;;;;;;;5039696;28;20210;-81
2022/08/10 02:15:23;;;;;;;2.40;2.30;;;;;;;;;;5039077;28;20252;-81
2022/08/10 02:17:52;;;;;;;4.25;2.72;;;;;;;;;;5039501;28;20246;-81
2022/08/10 02:20:21;;;;;;;4.13;2.30;;;;;;;;;;5039541;28;20245;-81
2022/08/10 02:22:50;;;;;;;3.05;2.30;;;;;;;;;;5039896;28;20207;-81
2022/08/10 02:25:18;;;;;;;6.88;2.50;;;;;;;;;;5038066;28;20207;-81
2022/08/10 02:27:46;;;;;;;5.15;2.80;;;;;;;;;;5039054;28;20231;-81
2022/08/10 02:30:13;;;;;;;5.20;4.10;;;;;;;;;;5039303;28;20213;-81
2022/08/10 02:32:41;;;;;;;3.53;2.50;;;;;;;;;;5058353;28;20202;-81
2022/08/10 02:35:10;;;;;;;9.95;2.70;;;;;;;;;;5058260;28;20198;-81
2022/08/10 02:37:40;;;;;;;5.07;2.93;;;;;;;;;;5058223;28;20221;-81
2022/08/10 02:40:08;;;;;;;7.35;3.05;;;;;;;;;;5057198;28;20213;-81
2022/08/10 02:42:40;;;;;;;3.45;2.40;;;;;;;;;;5058497;28;20214;-81
2022/08/10 02:45:12;;;;;;;3.80;2.60;;;;;;;;;;5056807;28;20247;-81
2022/08/10 02:47:41;;;;;;;2.65;2.45;;;;;;;;;;5057931;28;20237;-81
2022/08/10 02:50:11;;;;;;;5.80;2.30;;;;;;;;;;5056859;28;20201;-80
2022/08/10 02:52:42;;;;;;;4.00;2.60;;;;;;;;;;5057513;28;20627;-81
2022/08/10 02:55:13;;;;;;;3.17;2.42;;;;;;;;;;5057243;28;20204;-81
2022/08/10 02:57:43;;;;;;;3.17;2.60;;;;;;;;;;5064836;28;20214;-81
2022/08/10 03:00:11;;;;;;;10.95;2.80;;;;;;;;;;5055191;28;20226;-81
2022/08/10 03:02:39;;;;;;;3.22;2.50;;;;;;;;;;5041225;28;20213;-80
2022/08/10 03:05:08;;;;;;;3.27;2.60;;;;;;;;;;5051961;28;20202;-81
2022/08/10 03:07:36;;;;;;;4.37;2.80;;;;;;;;;;5044068;28;20231;-81
2022/08/10 03:10:06;;;;;;;5.57;3.53;;;;;;;;;;5055689;28;20683;-81
2022/08/10 03:12:33;;;;;;;3.70;2.50;;;;;;;;;;5039049;28;20199;-80
2022/08/10 03:15:01;;;;;;;2.87;2.60;;;;;;;;;;5050746;28;20202;-81
2022/08/10 03:17:29;;;;;;;5.03;2.73;;;;;;;;;;5057880;28;20218;-81
2022/08/10 03:19:58;;;;;;;3.10;2.80;;;;;;;;;;5059015;28;20213;-81
2022/08/10 03:22:25;;;;;;;2.97;2.30;;;;;;;;;;5052345;28;20234;-80
2022/08/10 03:24:53;;;;;;;3.77;2.80;;;;;;;;;;5040981;28;20199;-81
2022/08/10 03:27:23;;;;;;;5.77;2.80;;;;;;;;;;5041569;28;20238;-80
2022/08/10 03:29:50;;;;;;;4.43;2.53;;;;;;;;;;5038729;28;20210;-81
2022/08/10 03:32:18;;;;;;;3.00;2.70;;;;;;;;;;5053663;28;20241;-81
2022/08/10 03:34:45;;;;;;;2.97;2.60;;;;;;;;;;5054277;28;20213;-81
2022/08/10 03:37:12;;;;;;;3.77;2.50;;;;;;;;;;5068671;28;20226;-81
2022/08/10 03:39:39;;;;;;;7.13;2.93;;;;;;;;;;5070150;28;20228;-81
2022/08/10 03:42:07;;;;;;;2.93;2.73;;;;;;;;;;5067499;28;20263;-81
2022/08/10 03:44:36;;;;;;;3.00;2.80;;;;;;;;;;5054583;28;20355;-81
2022/08/10 03:47:05;;;;;;;3.80;2.67;;;;;;;;;;5054779;28;20299;-81
2022/08/10 03:49:33;;;;;;;3.90;2.80;;;;;;;;;;5053574;28;20222;-81
2022/08/10 03:52:01;;;;;;;5.40;2.63;;;;;;;;;;5052969;28;20264;-81
2022/08/10 03:54:28;;;;;;;5.30;2.67;;;;;;;;;;5054099;28;20206;-81
2022/08/10 03:56:56;;;;;;;3.23;3.00;;;;;;;;;;5045285;28;20245;-81
2022/08/10 03:59:23;;;;;;;3.07;2.43;;;;;;;;;;5054350;28;20205;-81
2022/08/10 04:01:52;;;;;;;3.33;2.73;;;;;;;;;;5051450;28;20234;-81
2022/08/10 04:04:20;;;;;;;3.00;2.70;;;;;;;;;;5054575;28;20202;-81
2022/08/10 04:06:47;;;;;;;2.73;2.50;;;;;;;;;;5052897;28;20666;-81
2022/08/10 04:09:16;;;;;;;4.63;3.10;;;;;;;;;;5054719;28;20279;-81
2022/08/10 04:11:43;;;;;;;5.63;2.40;;;;;;;;;;5053501;28;20233;-81
2022/08/10 04:14:10;;;;;;;3.40;3.10;;;;;;;;;;5050859;28;20202;-81
2022/08/10 04:16:37;;;;;;;4.00;2.83;;;;;;;;;;5054965;28;20234;-81
2022/08/10 04:19:07;;;;;;;3.30;3.00;;;;;;;;;;5054924;28;20609;-81
2022/08/10 04:21:37;;;;;;;3.10;2.90;;;;;;;;;;5054775;28;20237;-81
2022/08/10 04:24:07;;;;;;;3.13;2.83;;;;;;;;;;5055782;28;20559;-81
2022/08/10 04:26:34;;;;;;;4.70;3.10;;;;;;;;;;5058897;28;20641;-80
2022/08/10 04:29:01;;;;;;;6.43;3.47;;;;;;;;;;5053532;28;20233;-80
2022/08/10 04:31:28;;;;;;;3.00;2.80;;;;;;;;;;5051811;28;20237;-82
2022/08/10 04:33:56;;;;;;;3.20;2.90;;;;;;;;;;5053235;28;20202;-79
2022/08/10 04:36:25;;;;;;;3.47;3.17;;;;;;;;;;5050181;28;20233;-79
2022/08/10 04:38:53;;;;;;;3.40;3.10;;;;;;;;;;5055844;28;20258;-79
2022/08/10 04:41:21;;;;;;;2.67;2.47;;;;;;;;;;5048426;28;20237;-79
2022/08/10 04:43:48;;;;;;;4.80;2.93;;;;;;;;;;5041575;28;20218;-79
2022/08/10 04:46:15;;;;;;;3.00;2.57;;;;;;;;;;5052248;28;20240;-79
2022/08/10 04:48:42;;;;;;;4.33;2.83;;;;;;;;;;5057170;28;20233;-78
2022/08/10 04:51:09;;;;;;;3.37;2.80;;;;;;;;;;5058302;28;20233;-80
2022/08/10 04:53:38;;;;;;;3.20;3.00;;;;;;;;;;5059831;28;20209;-80
2022/08/10 04:56:07;;;;;;;3.90;3.60;;;;;;;;;;5055950;28;20244;-79
2022/08/10 04:58:34;;;;;;;3.30;3.10;;;;;;;;;;5056217;28;20198;-79
2022/08/10 05:01:01;;;;;;;3.57;3.27;;;;;;;;;;5057557;28;20234;-79
2022/08/10 05:03:28;;;;;;;7.40;3.30;;;;;;;;;;5061067;28;20202;-79
2022/08/10 05:05:55;;;;;;;9.73;4.13;;;;;;;;;;5063149;28;20240;-81
2022/08/10 05:08:22;;;;;;;3.50;3.20;;;;;;;;;;5059511;28;20288;-79
2022/08/10 05:10:51;;;;;;;7.00;3.50;;;;;;;;;;5059765;28;20728;-79
2022/08/10 05:13:18;;;;;;;3.50;3.23;;;;;;;;;;5060243;28;20210;-79
2022/08/10 05:15:45;;;;;;;7.40;3.50;;;;;;;;;;5059723;28;20624;-79
2022/08/10 05:18:12;;;;;;;9.10;3.23;;;;;;;;;;5060578;28;20210;-80
2022/08/10 05:20:39;;;;;;;8.00;3.20;;;;;;;;;;5059600;28;20229;-79
2022/08/10 05:23:07;;;;;;;5.33;3.30;;;;;;;;;;5059398;28;20210;-79
2022/08/10 05:25:34;;;;;;;5.17;3.53;;;;;;;;;;5058761;28;20257;-79
2022/08/10 05:28:02;;;;;;;5.10;4.30;;;;;;;;;;5058985;28;20226;-79
2022/08/10 05:30:29;;;;;;;8.33;3.70;;;;;;;;;;5058612;28;20593;-80
2022/08/10 05:32:56;;;;;;;5.40;4.00;;;;;;;;;;5059363;28;20210;-80
2022/08/10 05:35:24;;;;;;;4.10;3.70;;;;;;;;;;5055194;28;20260;-80
2022/08/10 05:37:51;;;;;;;7.27;3.50;;;;;;;;;;5060626;28;20233;-80
2022/08/10 05:40:18;;;;;;;6.37;3.77;;;;;;;;;;5059328;28;20241;-80
2022/08/10 05:42:46;;;;;;;8.53;3.60;;;;;;;;;;5060193;28;20202;-80
2022/08/10 05:45:19;;;;;;;7.63;4.40;;;;;;;;;;5059898;28;20213;-80
2022/08/10 05:47:46;;;;;;;7.00;3.63;;;;;;;;;;5059731;28;20258;-80
2022/08/10 05:50:15;;;;;;;8.20;3.83;;;;;;;;;;5060116;28;20677;-80
2022/08/10 05:52:42;;;;;;;4.83;3.47;;;;;;;;;;5060195;28;20210;-80
2022/08/10 05:55:09;;;;;;;5.20;4.13;;;;;;;;;;5059946;28;20607;-80
2022/08/10 05:57:37;;;;;;;7.07;3.50;;;;;;;;;;5058972;28;20226;-80
2022/08/10 06:00:07;;;;;;;5.43;3.17;;;;;;;;;;5057414;28;20202;-80
2022/08/10 06:02:38;;;;;;;5.40;3.40;;;;;;;;;;5058699;28;20198;-81
2022/08/10 06:05:07;;;;;;;3.37;3.00;;;;;;;;;;5058813;28;20210;-81
2022/08/10 06:07:35;;;;;;;4.33;2.90;;;;;;;;;;5058022;28;20242;-80
2022/08/10 06:10:02;;;;;;;7.30;3.27;;;;;;;;;;5058350;28;20225;-80
2022/08/10 06:12:30;;;;;;;5.10;4.00;;;;;;;;;;5058724;28;20206;-80
2022/08/10 06:15:00;;;;;;;6.73;3.10;;;;;;;;;;5059028;28;20217;-80
2022/08/10 06:17:28;;;;;;;7.23;3.00;;;;;;;;;;5057968;28;20226;-81
2022/08/10 06:19:57;;;;;;;6.27;3.00;;;;;;;;;;5058661;28;20270;-81
2022/08/10 06:22:24;;;;;;;4.37;2.67;;;;;;;;;;5058127;28;20240;-80
2022/08/10 06:24:51;;;;;;;7.23;3.40;;;;;;;;;;5058491;28;20206;-81
2022/08/10 06:27:18;;;;;;;3.87;2.83;;;;;;;;;;5058720;28;20249;-80
2022/08/10 06:29:46;;;;;;;5.63;3.07;;;;;;;;;;5058509;28;20252;-80
2022/08/10 06:32:14;;;;;;;4.70;2.70;;;;;;;;;;5057771;28;20287;-81
2022/08/10 06:34:43;;;;;;;4.67;2.77;;;;;;;;;;5058740;28;20214;-80
2022/08/10 06:37:13;;;;;;;4.53;2.50;;;;;;;;;;5058105;28;20233;-81
2022/08/10 06:39:40;;;;;;;4.00;2.40;;;;;;;;;;5059003;28;20216;-81
2022/08/10 06:42:13;;;;;;;2.55;2.35;;;;;;;;;;5057729;28;20233;-81
2022/08/10 06:44:42;;;;;;;3.65;2.63;;;;;;;;;;5057795;28;20210;-81
2022/08/10 06:47:12;;;;;;;2.47;2.28;;;;;;;;;;5057440;28;20229;-80
2022/08/10 06:49:40;;;;;;;3.28;2.38;;;;;;;;;;5057543;28;20218;-81
2022/08/10 06:52:11;;;;;;;2.45;2.25;;;;;;;;;;5057745;28;20233;-81
2022/08/10 06:54:40;;;;;;;4.10;2.10;;;;;;;;;;5056793;28;20213;-81
2022/08/10 06:57:09;;;;;;;5.47;2.65;;;;;;;;;;5037898;28;20339;-81
2022/08/10 06:59:38;;;;;;;6.47;2.30;;;;;;;;;;5037399;28;20234;-81
2022/08/10 07:02:08;;;;;;;3.45;2.08;;;;;;;;;;5048233;28;20253;-81
2022/08/10 07:04:37;;;;;;;2.58;2.10;;;;;;;;;;5057318;28;20252;-81
2022/08/10 07:07:05;;;;;;;2.35;2.15;;;;;;;;;;5056585;28;20234;-81
2022/08/10 07:09:33;;;;;;;3.38;2.20;;;;;;;;;;5056965;28;20221;-81
2022/08/10 07:12:01;;;;;;;3.35;2.70;;;;;;;;;;5056507;28;20234;-81
2022/08/10 07:14:29;;;;;;;2.30;1.95;;;;;;;;;;5057279;28;20613;-81
2022/08/10 07:16:56;;;;;;;4.65;2.38;;;;;;;;;;5060768;28;20237;-80
2022/08/10 07:19:24;;;;;;;5.95;2.13;;;;;;;;;;5077694;28;20263;-81
2022/08/10 07:21:51;;;;;;;2.35;2.15;;;;;;;;;;5076648;28;20259;-81
2022/08/10 07:24:19;;;;;;;2.83;2.20;;;;;;;;;;5074999;28;20236;-81
2022/08/10 07:26:47;;;;;;;4.13;2.47;;;;;;;;;;5073340;28;20240;-81
2022/08/10 07:29:16;;;;;;;2.85;1.90;;;;;;;;;;5073360;28;20229;-81
2022/08/10 07:31:43;;;;;;;2.47;2.28;;;;;;;;;;5073092;28;20240;-80
2022/08/10 07:34:11;;;;;;;2.42;2.22;;;;;;;;;;5062450;28;20244;-81
2022/08/10 07:36:40;;;;;;;4.10;2.10;;;;;;;;;;5053080;28;20225;-82
2022/08/10 07:39:08;;;;;;;8.07;2.03;;;;;;;;;;5049665;28;20670;-83
2022/08/10 07:41:35;;;;;;;5.50;2.17;;;;;;;;;;5053853;28;20226;-80
2022/08/10 07:44:03;;;;;;;5.15;2.13;;;;;;;;;;5074673;28;20206;-83
2022/08/10 07:46:31;;;;;;;3.28;2.28;;;;;;;;;;5071338;28;20775;-83
2022/08/10 07:49:00;;;;;;;4.55;2.22;;;;;;;;;;5071875;28;20604;-83
2022/08/10 07:51:28;;;;;;;6.65;2.38;;;;;;;;;;5072220;28;20233;-81
2022/08/10 07:53:56;;;;;;;2.72;2.33;;;;;;;;;;5074060;28;20628;-81
2022/08/10 07:56:26;;;;;;;4.72;1.90;;;;;;;;;;5073556;28;20233;-81
2022/08/10 07:58:55;;;;;;;2.15;1.80;;;;;;;;;;5075187;28;20258;-81
2022/08/10 08:01:28;;;;;;;2.45;1.70;;;;;;;;;;5074606;28;20256;-81
2022/08/10 08:03:56;;;;;;;2.42;2.03;;;;;;;;;;5074876;28;20206;-80
2022/08/10 08:06:23;;;;;;;3.47;1.98;;;;;;;;;;5074843;28;20255;-81
2022/08/10 08:08:51;;;;;;;4.38;2.03;;;;;;;;;;5078659;28;20287;-81
2022/08/10 08:11:20;;;;;;;3.30;2.00;;;;;;;;;;5096308;28;20225;-81
2022/08/10 08:13:47;;;;;;;2.55;1.70;;;;;;;;;;5092258;28;20198;-81
2022/08/10 08:16:15;;;;;;;3.38;1.58;;;;;;;;;;5070940;28;20252;-81
2022/08/10 08:18:42;;;;;;;2.13;1.60;;;;;;;;;;5071159;28;20202;-81
2022/08/10 08:21:11;;;;;;;4.07;1.60;;;;;;;;;;5070712;28;20233;-83
2022/08/10 08:23:38;;;;;;;1.70;1.60;;;;;;;;;;5073005;28;21027;-83
2022/08/10 08:26:07;;;;;;;1.50;1.40;;;;;;;;;;5074562;28;20259;-84
2022/08/10 08:28:34;;;;;;;4.20;1.80;;;;;;;;;;5075064;28;20209;-83
2022/08/10 08:31:02;;;;;;;2.42;1.60;;;;;;;;;;5074392;28;20781;-82
2022/08/10 08:33:29;;;;;;;2.75;1.60;;;;;;;;;;5076485;28;20237;-82
2022/08/10 08:35:57;;;;;;;2.72;1.70;;;;;;;;;;5075833;28;20669;-83
2022/08/10 08:38:27;;;;;;;4.85;1.92;;;;;;;;;;5089430;23;20237;-83
2022/08/10 08:40:58;;;;;;;1.80;1.70;;;;;;;;;;5061395;28;20257;-80
2022/08/10 08:43:47;;;;;;;3.25;2.10;;;;;;;;;;5055063;28;20186;-80
2022/08/10 08:46:38;;;;;;;1.77;1.65;;;;;;;;;;5055310;28;20234;-80
2022/08/10 08:49:12;;;;;;;2.40;1.77;;;;;;;;;;5015090;28;20328;-79
2022/08/10 08:51:44;;;;;;;2.03;1.70;;;;;;;;;;5034808;28;20241;-81
2022/08/10 08:54:17;;;;;;;2.30;1.30;;;;;;;;;;5035513;28;20328;-80
2022/08/10 08:56:47;;;;;;;3.92;1.50;;;;;;;;;;5035846;28;20679;-79
2022/08/10 08:59:25;;;;;;;2.65;1.80;;;;;;;;;;5035228;28;20218;-79
2022/08/10 09:02:01;;;;;;;5.25;1.45;;;;;;;;;;5034437;28;20230;-79
2022/08/10 09:04:38;;;;;;;1.95;1.50;;;;;;;;;;5034970;28;20257;-79
2022/08/10 09:07:20;;;;;;;1.77;1.60;;;;;;;;;;5034386;28;20742;-79
2022/08/10 09:10:03;;;;;;;1.70;1.60;;;;;;;;;;5001840;28;20234;-79
2022/08/10 09:12:39;;;;;;;1.65;1.42;;;;;;;;;;5034666;28;20227;-80
2022/08/10 09:15:09;;;;;;;1.63;1.52;;;;;;;;;;5043487;28;20258;-86
2022/08/10 09:17:41;;;;;;;1.50;1.40;;;;;;;;;;5037677;28;20258;-80
2022/08/10 09:20:09;;;;;;;1.45;1.42;;;;;;;;;;5035848;28;20209;-80
2022/08/10 09:22:41;;;;;;;2.13;1.55;;;;;;;;;;5035091;28;20218;-82
2022/08/10 09:25:18;;;;;;;1.98;1.33;;;;;;;;;;5035503;28;20202;-81
2022/08/10 09:27:47;;;;;;;3.38;1.15;;;;;;;;;;5035544;28;20321;-80
2022/08/10 09:30:16;;;;;;;2.65;1.50;;;;;;;;;;5034273;28;20702;-83
2022/08/10 09:32:45;;;;;;;2.63;1.60;;;;;;;;;;5035105;28;20233;-80
2022/08/10 09:35:15;;;;;;;2.90;1.58;;;;;;;;;;5033943;28;20210;-80
2022/08/10 09:37:45;;;;;;;1.50;1.38;;;;;;;;;;5035045;28;20245;-81
2022/08/10 09:40:16;;;;;;;2.83;1.70;;;;;;;;;;5034625;28;20207;-80
2022/08/10 09:42:45;;;;;;;1.63;1.17;;;;;;;;;;5034630;28;20891;-80
2022/08/10 09:45:15;;;;;;;1.55;1.45;;;;;;;;;;5034426;28;20698;-80
2022/08/10 09:47:55;;;;;;;2.75;1.40;;;;;;;;;;5035239;28;20246;-80
2022/08/10 09:50:25;;;;;;;1.73;1.35;;;;;;;;;;5034334;28;20234;-84
2022/08/10 09:52:57;;;;;;;3.03;1.60;;;;;;;;;;5036323;28;20547;-81
2022/08/10 09:55:28;;;;;;;3.08;1.55;;;;;;;;;;5035529;28;20230;-81
2022/08/10 09:57:59;;;;;;;2.35;1.30;;;;;;;;;;5035327;28;20550;-81
2022/08/10 10:00:30;;;;;;;1.65;1.40;;;;;;;;;;5035426;28;20636;-81
2022/08/10 10:03:15;;;;;;;1.30;1.20;;;;;;;;;;5035218;28;20199;-81
2022/08/10 10:05:48;;;;;;;1.65;1.25;;;;;;;;;;5015068;28;20237;-80
2022/08/10 10:08:19;;;;;;;1.60;1.20;;;;;;;;;;5016676;28;20969;-81
2022/08/10 10:11:02;;;;;;;3.22;1.35;;;;;;;;;;5015397;28;20285;-80
2022/08/10 10:13:35;;;;;;;1.77;1.58;;;;;;;;;;5021395;28;20690;-81
2022/08/10 10:16:06;;;;;;;2.20;1.50;;;;;;;;;;5022169;28;20237;-81
2022/08/10 10:18:41;;;;;;;1.00;1.00;;;;;;;;;;5036515;28;20231;-84
2022/08/10 10:21:12;;;;;;;2.55;1.40;;;;;;;;;;5036144;28;20234;-81
2022/08/10 10:23:43;;;;;;;2.58;1.52;;;;;;;;;;5016281;28;20211;-81
2022/08/10 10:26:20;;;;;;;2.25;1.60;;;;;;;;;;5017022;28;20234;-82
2022/08/10 10:29:04;;;;;;;2.20;1.48;;;;;;;;;;5018040;28;20593;-81
2022/08/10 10:31:34;;;;;;;1.60;1.50;;;;;;;;;;5017267;28;20227;-81
2022/08/10 10:34:07;;;;;;;2.20;1.45;;;;;;;;;;5019435;28;20198;-82
2022/08/10 10:36:34;;;;;;;1.50;1.40;;;;;;;;;;5018389;28;20230;-84
2022/08/10 10:39:03;;;;;;;1.55;1.45;;;;;;;;;;5033801;28;20206;-82
2022/08/10 10:41:36;;;;;;;1.63;1.52;;;;;;;;;;5029928;28;20248;-85
2022/08/10 10:44:09;;;;;;;1.48;1.25;;;;;;;;;;5038448;28;20614;-82
2022/08/10 10:46:42;;;;;;;1.58;1.38;;;;;;;;;;5037383;28;20796;-83
2022/08/10 10:49:15;;;;;;;2.40;1.38;;;;;;;;;;5038367;28;20241;-83
2022/08/10 10:51:45;;;;;;;3.20;1.42;;;;;;;;;;5033955;28;20222;-83
2022/08/10 10:54:16;;;;;;;1.30;1.15;;;;;;;;;;5035296;28;20229;-84
2022/08/10 10:56:49;;;;;;;1.17;1.02;;;;;;;;;;5033089;28;20237;-84
2022/08/10 10:59:23;;;;;;;1.27;1.25;;;;;;;;;;5028614;28;20206;-84
2022/08/10 11:01:53;;;;;;;1.25;1.10;;;;;;;;;;5032457;28;20237;-84
2022/08/10 11:04:23;;;;;;;1.23;1.23;;;;;;;;;;5035128;28;20197;-85
2022/08/10 11:06:57;;;;;;;2.65;1.08;;;;;;;;;;5032147;28;20261;-83
2022/08/10 11:09:32;;;;;;;3.17;1.33;;;;;;;;;;5033457;28;20206;-84
2022/08/10 11:12:03;;;;;;;3.25;1.40;;;;;;;;;;5036297;28;20241;-84
2022/08/10 11:14:33;;;;;;;3.58;1.52;;;;;;;;;;5036297;28;20217;-83
2022/08/10 11:17:03;;;;;;;3.58;1.55;;;;;;;;;;5035599;28;20249;-83
2022/08/10 11:19:34;;;;;;;1.45;1.20;;;;;;;;;;5033942;28;20233;-83
2022/08/10 11:22:07;;;;;;;2.95;1.40;;;;;;;;;;5033647;28;20226;-83
2022/08/10 11:24:39;;;;;;;1.65;1.40;;;;;;;;;;5016601;28;20206;-83
2022/08/10 11:27:17;;;;;;;2.05;1.50;;;;;;;;;;5033307;28;20244;-82
2022/08/10 11:29:48;;;;;;;2.70;1.10;;;;;;;;;;5034991;28;20236;-82
2022/08/10 11:32:18;;;;;;;1.08;1.08;;;;;;;;;;5034996;28;20233;-83
2022/08/10 11:34:51;;;;;;;1.95;1.17;;;;;;;;;;5027411;28;20202;-83
2022/08/10 11:37:20;;;;;;;2.58;1.40;;;;;;;;;;5036467;28;20230;-83
2022/08/10 11:39:50;;;;;;;1.63;1.30;;;;;;;;;;5035923;28;20206;-84
2022/08/10 11:42:30;;;;;;;2.25;1.58;;;;;;;;;;5021749;28;20233;-84
2022/08/10 11:45:00;;;;;;;3.42;1.25;;;;;;;;;;5016388;28;20198;-81
2022/08/10 11:47:31;;;;;;;1.48;1.38;;;;;;;;;;5014890;28;20241;-83
2022/08/10 11:50:02;;;;;;;2.47;1.25;;;;;;;;;;5036165;28;20233;-84
2022/08/10 11:52:34;;;;;;;4.18;1.48;;;;;;;;;;5035554;28;20213;-84
2022/08/10 11:55:09;;;;;;;1.50;1.40;;;;;;;;;;5019014;28;20290;-83
2022/08/10 11:57:38;;;;;;;1.42;1.30;;;;;;;;;;5016247;28;20327;-84
2022/08/10 12:00:06;;;;;;;1.65;1.50;;;;;;;;;;5036335;28;20206;-83
2022/08/10 12:02:37;;;;;;;4.55;1.50;;;;;;;;;;5037537;28;20662;-83
2022/08/10 12:05:08;;;;;;;1.23;1.13;;;;;;;;;;5056170;28;20210;-83
2022/08/10 12:07:39;;;;;;;1.67;1.58;;;;;;;;;;5047418;28;20694;-83
2022/08/10 12:10:07;;;;;;;1.27;1.17;;;;;;;;;;5058754;28;20221;-85
2022/08/10 12:12:37;;;;;;;2.65;1.50;;;;;;;;;;5059492;28;20209;-82
2022/08/10 12:15:09;;;;;;;1.83;1.20;;;;;;;;;;5060242;28;20205;-82
2022/08/10 12:17:38;;;;;;;2.58;1.30;;;;;;;;;;5035422;28;20234;-82
2022/08/10 12:20:08;;;;;;;3.25;1.40;;;;;;;;;;5020687;28;20595;-83
2022/08/10 12:22:41;;;;;;;4.22;1.40;;;;;;;;;;5020221;28;20197;-81
2022/08/10 12:25:12;;;;;;;3.20;1.50;;;;;;;;;;5020713;28;20249;-82
2022/08/10 12:27:53;;;;;;;1.20;1.10;;;;;;;;;;5019945;28;20234;-83
2022/08/10 12:30:32;;;;;;;3.97;1.27;;;;;;;;;;5023147;28;20236;-82
2022/08/10 12:33:02;;;;;;;1.80;1.70;;;;;;;;;;5020280;28;20207;-82
2022/08/10 12:35:34;;;;;;;1.40;1.30;;;;;;;;;;5020621;28;20230;-85
2022/08/10 12:38:05;;;;;;;1.30;1.20;;;;;;;;;;5034257;28;20229;-83
2022/08/10 12:40:35;;;;;;;3.03;1.27;;;;;;;;;;5040375;28;20226;-80
2022/08/10 12:43:06;;;;;;;1.63;1.42;;;;;;;;;;5047867;28;20665;-82
2022/08/10 12:45:38;;;;;;;1.33;1.23;;;;;;;;;;5047940;28;20237;-81
2022/08/10 12:48:11;;;;;;;2.80;1.10;;;;;;;;;;5039960;28;20222;-82
2022/08/10 12:50:40;;;;;;;1.30;1.20;;;;;;;;;;5038903;28;20244;-84
2022/08/10 12:53:15;;;;;;;1.52;1.40;;;;;;;;;;5039900;28;20206;-82
2022/08/10 12:55:43;;;;;;;1.90;1.77;;;;;;;;;;5040382;28;20241;-85
2022/08/10 12:58:13;;;;;;;1.92;1.35;;;;;;;;;;5039566;28;20218;-82
2022/08/10 13:00:43;;;;;;;4.55;1.52;;;;;;;;;;5039635;28;20233;-82
2022/08/10 13:03:10;;;;;;;1.70;1.60;;;;;;;;;;5040463;28;20284;-83
2022/08/10 13:05:38;;;;;;;5.45;1.40;;;;;;;;;;5043820;28;20580;-81
2022/08/10 13:11:03;;;;;;;2.35;1.35;;;;;;;;;;4977531;28;20243;-81
2022/08/10 13:13:32;;;;;;;1.50;1.40;;;;;;;;;;5018517;28;20209;-83
2022/08/10 13:16:02;;;;;;;2.60;1.42;;;;;;;;;;5038226;28;20709;-81
2022/08/10 13:18:30;;;;;;;1.75;1.63;;;;;;;;;;5038188;28;20702;-83
2022/08/10 13:21:03;;;;;;;1.50;1.33;;;;;;;;;;5038591;28;20238;-82
2022/08/10 13:23:32;;;;;;;1.63;1.50;;;;;;;;;;5039651;28;20197;-82
2022/08/10 13:26:01;;;;;;;3.22;1.60;;;;;;;;;;5038883;28;20635;-85
2022/08/10 13:28:38;;;;;;;1.98;1.40;;;;;;;;;;5039139;28;20253;-82
2022/08/10 13:31:08;;;;;;;2.05;1.48;;;;;;;;;;5038172;28;20709;-81
2022/08/10 13:33:35;;;;;;;1.50;1.40;;;;;;;;;;5039074;28;20225;-84
2022/08/10 13:36:03;;;;;;;1.48;1.38;;;;;;;;;;5038189;28;20238;-82
2022/08/10 13:38:30;;;;;;;1.60;1.38;;;;;;;;;;5038447;28;20234;-82
2022/08/10 13:40:58;;;;;;;2.85;1.58;;;;;;;;;;5037646;28;20245;-82
2022/08/10 13:43:33;;;;;;;1.38;1.27;;;;;;;;;;5039779;28;20214;-82
2022/08/10 13:46:00;;;;;;;1.63;1.13;;;;;;;;;;5039047;28;20233;-81
2022/08/10 13:48:31;;;;;;;1.85;1.60;;;;;;;;;;5039951;28;20237;-82
2022/08/10 13:51:00;;;;;;;1.88;1.40;;;;;;;;;;5044253;28;20249;-90
2022/08/10 13:53:30;;;;;;;1.50;1.40;;;;;;;;;;5056304;28;20220;-83
2022/08/10 13:55:58;;;;;;;3.47;1.60;;;;;;;;;;5055539;28;20234;-81
2022/08/10 13:58:26;;;;;;;2.42;1.42;;;;;;;;;;5051200;28;20222;-82
2022/08/10 14:00:54;;;;;;;1.40;1.30;;;;;;;;;;5046085;28;20229;-82
2022/08/10 14:03:22;;;;;;;2.78;1.33;;;;;;;;;;5035913;28;20209;-82
2022/08/10 14:05:52;;;;;;;1.08;1.08;;;;;;;;;;5035484;28;20233;-82
2022/08/10 14:08:21;;;;;;;3.45;1.20;;;;;;;;;;5035909;28;20324;-81
2022/08/10 14:10:50;;;;;;;1.73;1.30;;;;;;;;;;5035140;28;20245;-89
2022/08/10 14:13:24;;;;;;;1.45;1.35;;;;;;;;;;5027390;28;20213;-82
2022/08/10 14:15:51;;;;;;;1.50;1.40;;;;;;;;;;5047144;28;20241;-87
2022/08/10 14:18:18;;;;;;;2.13;1.40;;;;;;;;;;5038577;28;20230;-83
2022/08/10 14:20:45;;;;;;;3.05;1.33;;;;;;;;;;5050183;28;20234;-82
2022/08/10 14:23:14;;;;;;;1.40;1.25;;;;;;;;;;5031796;28;20202;-82
2022/08/10 14:25:49;;;;;;;2.75;1.60;;;;;;;;;;5020673;28;20237;-82
2022/08/10 14:28:16;;;;;;;1.30;1.20;;;;;;;;;;5038843;28;20252;-82
2022/08/10 14:30:45;;;;;;;1.52;1.42;;;;;;;;;;5037210;28;20300;-86
2022/08/10 14:33:14;;;;;;;2.03;1.40;;;;;;;;;;5038420;28;20202;-82
2022/08/10 14:35:44;;;;;;;1.25;1.13;;;;;;;;;;5040557;28;20237;-84
2022/08/10 14:38:14;;;;;;;2.38;1.50;;;;;;;;;;5083257;22;20231;-85
2022/08/10 14:40:51;;;;;;;5.25;1.30;;;;;;;;;;5083015;28;20936;-85
2022/08/10 14:43:21;;;;;;;3.35;1.70;;;;;;;;;;5074416;28;20212;-85
2022/08/10 14:45:54;;;;;;;1.30;1.20;;;;;;;;;;5074459;28;20229;-84
2022/08/10 14:48:23;;;;;;;1.50;1.40;;;;;;;;;;5073623;28;20233;-84
2022/08/10 14:50:52;;;;;;;2.42;1.40;;;;;;;;;;5072442;28;20240;-83
2022/08/10 14:53:21;;;;;;;2.60;1.20;;;;;;;;;;5081213;28;20193;-82
2022/08/10 14:55:50;;;;;;;1.65;1.40;;;;;;;;;;5093386;28;20224;-83
2022/08/10 14:58:21;;;;;;;5.45;1.55;;;;;;;;;;5093411;28;20239;-82
2022/08/10 15:00:49;;;;;;;2.15;1.50;;;;;;;;;;5094548;28;20592;-84
2022/08/10 15:03:17;;;;;;;1.40;1.30;;;;;;;;;;5112434;28;20212;-84